createdAt,value
2022-10-16T00:03:12.978Z,27.50
2022-10-16T00:08:18.744Z,29.37
2022-10-16T00:13:28.485Z,31.30
2022-10-16T00:18:38.355Z,29.17
2022-10-16T00:23:43.745Z,30.67
2022-10-16T00:28:52.950Z,30.50
2022-10-16T00:34:00.676Z,27.77
2022-10-16T00:39:07.817Z,29.70
2022-10-16T00:44:49.269Z,29.17
2022-10-16T00:49:58.944Z,30.23
2022-10-16T00:55:07.035Z,29.90
2022-10-16T01:00:15.865Z,32.77
2022-10-16T01:05:24.099Z,29.70
2022-10-16T01:10:42.167Z,29.13
2022-10-16T01:15:50.757Z,32.87
2022-10-16T01:21:05.697Z,32.40
2022-10-16T01:26:30.221Z,33.10
2022-10-16T01:31:41.684Z,32.47
2022-10-16T01:36:57.571Z,31.80
2022-10-16T01:42:19.138Z,31.23
2022-10-16T01:47:28.066Z,32.43
2022-10-16T01:52:36.243Z,32.73
2022-10-16T01:57:45.861Z,31.60
2022-10-16T02:02:55.656Z,31.80
2022-10-16T02:08:05.623Z,32.17
2022-10-16T02:13:17.412Z,31.23
2022-10-16T02:18:24.331Z,32.10
2022-10-16T02:23:39.349Z,32.27
2022-10-16T02:33:59.162Z,30.17
2022-10-16T02:39:07.988Z,31.57
2022-10-16T02:44:13.172Z,30.73
2022-10-16T02:49:19.188Z,30.87
2022-10-16T02:54:26.077Z,31.10
2022-10-16T02:59:33.223Z,33.30
2022-10-16T03:04:41.421Z,44.97
2022-10-16T03:09:48.502Z,33.03
2022-10-16T03:14:53.738Z,32.10
2022-10-16T03:20:00.187Z,29.53
2022-10-16T03:25:07.093Z,29.93
2022-10-16T03:30:16.564Z,32.20
2022-10-16T03:35:40.504Z,29.90
2022-10-16T03:40:46.706Z,29.30
2022-10-16T03:45:53.346Z,30.63
2022-10-16T03:50:59.693Z,28.80
2022-10-16T03:56:07.495Z,29.23
2022-10-16T04:01:15.396Z,27.70
2022-10-16T04:06:21.817Z,28.43
2022-10-16T04:11:30.051Z,29.23
2022-10-16T04:16:36.899Z,27.40
2022-10-16T04:21:46.372Z,27.13
2022-10-16T04:26:51.926Z,30.17
2022-10-16T04:32:00.731Z,29.10
2022-10-16T04:37:09.144Z,27.87
2022-10-16T04:42:17.477Z,28.00
2022-10-16T04:47:23.909Z,27.87
2022-10-16T04:52:32.197Z,29.43
2022-10-16T04:57:41.066Z,29.53
2022-10-16T05:03:06.941Z,28.57
2022-10-16T05:08:12.814Z,28.63
2022-10-16T05:13:20.817Z,28.40
2022-10-16T05:18:39.377Z,27.37
2022-10-16T05:29:38.324Z,26.97
2022-10-16T05:35:15.393Z,24.87
2022-10-16T05:40:41.940Z,25.27
2022-10-16T05:46:09.744Z,25.13
2022-10-16T05:51:25.996Z,23.77
2022-10-16T05:56:31.276Z,22.87
2022-10-16T06:01:55.862Z,22.37
2022-10-16T06:07:05.972Z,22.40
2022-10-16T06:12:11.253Z,22.63
2022-10-16T06:17:17.875Z,21.63
2022-10-16T06:22:27.790Z,19.93
2022-10-16T06:27:33.435Z,21.60
2022-10-16T06:32:38.676Z,19.87
2022-10-16T06:37:52.939Z,18.40
2022-10-16T06:42:58.821Z,19.40
2022-10-16T06:48:05.697Z,18.60
2022-10-16T06:53:13.477Z,17.47
2022-10-16T06:58:19.894Z,17.10
2022-10-16T07:03:25.198Z,16.37
2022-10-16T07:08:33.922Z,16.30
2022-10-16T07:19:35.555Z,15.60
2022-10-16T07:25:03.526Z,15.00
2022-10-16T07:30:09.413Z,15.87
2022-10-16T07:35:15.061Z,14.47
2022-10-16T07:40:30.324Z,14.50
2022-10-16T07:45:40.151Z,13.10
2022-10-16T07:50:49.258Z,11.93
2022-10-16T07:55:56.660Z,10.20
2022-10-16T08:01:05.101Z,10.57
2022-10-16T08:06:14.298Z,10.60
2022-10-16T08:11:33.019Z,11.70
2022-10-16T08:16:39.377Z,9.87
2022-10-16T08:21:49.369Z,10.10
2022-10-16T08:26:56.617Z,10.13
2022-10-16T08:32:02.450Z,9.63
2022-10-16T08:37:09.961Z,8.77
2022-10-16T08:42:34.547Z,9.83
2022-10-16T08:47:53.207Z,9.13
2022-10-16T08:53:02.373Z,9.30
2022-10-16T08:58:24.281Z,8.77
2022-10-16T09:03:54.465Z,8.33
2022-10-16T09:09:08.581Z,8.00
2022-10-16T09:14:38.346Z,6.77
2022-10-16T09:19:49.145Z,7.10
2022-10-16T09:24:55.340Z,6.67
2022-10-16T09:30:00.621Z,6.60
2022-10-16T09:35:06.178Z,6.73
2022-10-16T09:40:16.958Z,6.53
2022-10-16T09:45:25.088Z,6.93
2022-10-16T09:50:31.026Z,6.20
2022-10-16T09:55:36.687Z,7.20
2022-10-16T10:00:44.868Z,6.97
2022-10-16T10:05:52.321Z,7.27
2022-10-16T10:10:59.585Z,6.73
2022-10-16T10:16:04.838Z,6.27
2022-10-16T10:21:14.109Z,6.07
2022-10-16T10:26:22.320Z,5.70
2022-10-16T10:31:33.225Z,5.73
2022-10-16T10:36:43.649Z,5.23
2022-10-16T10:42:13.576Z,5.60
2022-10-16T10:47:24.507Z,4.97
2022-10-16T10:52:53.323Z,4.00
2022-10-16T10:58:15.012Z,3.80
2022-10-16T11:03:48.689Z,4.40
2022-10-16T11:15:00.245Z,4.13
2022-10-16T11:20:33.933Z,3.70
2022-10-16T11:25:43.237Z,4.43
2022-10-16T11:31:00.695Z,4.03
2022-10-16T11:36:34.647Z,3.33
2022-10-16T11:42:07.819Z,4.53
2022-10-16T11:47:59.299Z,4.57
2022-10-16T11:53:23.086Z,4.00
2022-10-16T11:58:41.512Z,4.13
2022-10-16T12:04:18.493Z,4.30
2022-10-16T12:09:34.259Z,4.53
2022-10-16T12:20:01.673Z,4.87
2022-10-16T12:25:07.492Z,4.40
2022-10-16T12:30:15.824Z,4.70
2022-10-16T12:35:26.981Z,4.63
2022-10-16T12:40:37.975Z,4.40
2022-10-16T12:45:43.276Z,4.33
2022-10-16T12:50:48.938Z,4.17
2022-10-16T12:56:05.075Z,4.50
2022-10-16T13:01:26.715Z,5.20
2022-10-16T13:06:54.933Z,4.47
2022-10-16T13:12:24.207Z,4.63
2022-10-16T13:17:38.218Z,4.97
2022-10-16T13:22:55.241Z,4.30
2022-10-16T13:28:04.580Z,4.43
2022-10-16T13:33:18.493Z,4.73
2022-10-16T13:38:26.683Z,4.20
2022-10-16T13:43:37.335Z,5.07
2022-10-16T13:48:43.122Z,4.20
2022-10-16T13:53:48.507Z,4.33
2022-10-16T13:59:05.464Z,4.73
2022-10-16T14:04:13.011Z,4.83
2022-10-16T14:09:27.385Z,4.90
2022-10-16T14:14:35.659Z,5.20
2022-10-16T14:19:40.989Z,5.30
2022-10-16T14:24:46.387Z,4.30
2022-10-16T14:29:53.004Z,4.90
2022-10-16T14:34:58.295Z,4.90
2022-10-16T14:40:04.702Z,4.77
2022-10-16T14:45:13.051Z,6.07
2022-10-16T14:50:19.838Z,6.90
2022-10-16T14:55:25.561Z,7.33
2022-10-16T15:00:30.936Z,6.30
2022-10-16T15:05:36.182Z,5.80
2022-10-16T15:10:45.374Z,5.93
2022-10-16T15:15:50.639Z,5.70
2022-10-16T15:20:57.199Z,5.20
2022-10-16T15:26:02.452Z,5.73
2022-10-16T15:31:16.301Z,5.97
2022-10-16T15:36:38.783Z,7.50
2022-10-16T15:41:45.413Z,10.57
2022-10-16T15:46:50.691Z,17.40
2022-10-16T15:51:56.066Z,23.40
2022-10-16T15:57:01.318Z,12.57
2022-10-16T16:02:06.637Z,10.70
2022-10-16T16:07:15.623Z,11.27
2022-10-16T16:12:26.144Z,10.60
2022-10-16T16:17:36.707Z,10.20
2022-10-16T16:22:45.415Z,12.33
2022-10-16T16:27:51.631Z,13.90
2022-10-16T16:32:57.005Z,15.53
2022-10-16T16:38:02.338Z,13.53
2022-10-16T16:43:07.991Z,12.93
2022-10-16T16:48:13.241Z,14.00
2022-10-16T16:53:18.432Z,13.63
2022-10-16T16:58:23.768Z,15.70
2022-10-16T17:03:34.382Z,18.23
2022-10-16T17:08:40.794Z,14.93
2022-10-16T17:13:46.213Z,17.23
2022-10-16T17:18:52.555Z,19.47
2022-10-16T17:23:58.065Z,18.37
2022-10-16T17:29:04.048Z,18.07
2022-10-16T17:34:12.904Z,14.90
2022-10-16T17:39:19.178Z,14.63
2022-10-16T17:44:24.585Z,14.33
2022-10-16T17:49:29.676Z,13.60
2022-10-16T17:54:36.304Z,15.30
2022-10-16T17:59:46.753Z,14.20
2022-10-16T18:04:52.255Z,29.23
2022-10-16T18:10:10.370Z,19.07
2022-10-16T18:15:04.784Z,18.97
2022-10-16T18:20:10.543Z,16.57
2022-10-16T18:25:15.995Z,16.83
2022-10-16T18:30:21.606Z,17.50
2022-10-16T18:35:26.903Z,19.70
2022-10-16T18:40:38.455Z,22.57
2022-10-16T18:45:44.208Z,25.70
2022-10-16T18:50:53.806Z,23.77
2022-10-16T18:55:58.950Z,22.97
2022-10-16T19:01:09.724Z,23.40
2022-10-16T19:06:21.282Z,21.03
2022-10-16T19:11:29.520Z,19.67
2022-10-16T19:16:37.398Z,18.40
2022-10-16T19:21:43.598Z,16.20
2022-10-16T19:26:48.887Z,18.07
2022-10-16T19:31:55.061Z,18.13
2022-10-16T19:37:02.805Z,18.30
2022-10-16T19:42:09.619Z,22.07
2022-10-16T19:47:15.585Z,21.83
2022-10-16T19:52:22.458Z,23.77
2022-10-16T19:57:27.998Z,23.97
2022-10-16T20:02:33.449Z,26.20
2022-10-16T20:07:42.562Z,25.30
2022-10-16T20:12:47.515Z,26.13
2022-10-16T20:17:52.758Z,22.50
2022-10-16T20:22:58.642Z,22.20
2022-10-16T20:28:03.972Z,23.83
2022-10-16T20:33:09.969Z,22.73
2022-10-16T20:38:18.408Z,22.83
2022-10-16T20:43:25.188Z,24.20
2022-10-16T20:48:30.444Z,24.93
2022-10-16T20:53:38.758Z,25.90
2022-10-16T20:58:45.047Z,26.43
2022-10-16T21:03:56.359Z,25.57
2022-10-16T21:09:03.711Z,25.53
2022-10-16T21:14:10.238Z,26.33
2022-10-16T21:19:15.323Z,26.70
2022-10-16T21:24:20.362Z,33.30
2022-10-16T21:29:25.574Z,30.43
2022-10-16T21:34:30.907Z,31.07
2022-10-16T21:39:36.073Z,28.13
2022-10-16T21:44:42.213Z,27.43
2022-10-16T21:49:47.597Z,26.07
2022-10-16T21:54:52.780Z,23.97
2022-10-16T21:59:58.016Z,24.87
2022-10-16T22:05:03.552Z,21.67
2022-10-16T22:10:10.371Z,20.77
2022-10-16T22:15:15.653Z,20.53
2022-10-16T22:20:21.550Z,22.10
2022-10-16T22:25:28.006Z,19.63
2022-10-16T22:30:34.665Z,19.17
2022-10-16T22:35:41.883Z,19.07
2022-10-16T22:40:47.331Z,18.80
2022-10-16T22:45:52.436Z,20.47
2022-10-16T22:50:57.836Z,21.53
2022-10-16T22:56:03.432Z,24.00
2022-10-16T23:01:29.744Z,25.87
2022-10-16T23:06:36.112Z,21.90
2022-10-16T23:11:41.335Z,23.37
2022-10-16T23:16:46.613Z,21.93
2022-10-16T23:21:53.313Z,21.73
2022-10-16T23:26:59.751Z,19.67
2022-10-16T23:32:06.702Z,19.27
2022-10-16T23:37:13.321Z,18.03
2022-10-16T23:42:20.628Z,18.47
2022-10-16T23:47:26.067Z,17.33
2022-10-16T23:52:32.341Z,15.63
2022-10-16T23:57:38.355Z,14.70
